Flight Track Log - Related Links

Times and Time Zones

All times are in EDT time to prevent confusion due to time zone crossing. See the UPS1081 flight status page for this flight to view local times or setup timezone preferences in your user account.

Time Position Orientation Groundspeed Altitude Reporting Facility
EDT Latitude Longitude Course Direction KTS MPH feet Rate Location/Type
Wed 11:13:55 PM 40.6786 -74.1770 205° Southwest 174 200 700  Level FlightAware ADS-B
Wed 11:14:08 PM 40.6694 -74.1814 200° South 168 193 1,400 3,273 Climbing FlightAware ADS-B
Wed 11:14:17 PM 40.6616 -74.1813 179° South 176 203 1,900 2,700 Climbing FlightAware ADS-B
Wed 11:14:28 PM 40.6524 -74.1795 172° South 189 217 2,300 1,800 Climbing FlightAware ADS-B
Wed 11:14:37 PM 40.6448 -74.1796 181° South 193 222 2,500 1,440 Climbing FlightAware ADS-B
Wed 11:14:53 PM 40.6300 -74.1853 196° South 219 252 2,900 1,429 Climbing FlightAware ADS-B
Wed 11:14:58 PM 40.6251 -74.1875 199° South 226 260 3,000 1,385 Climbing FlightAware ADS-B
Wed 11:15:06 PM 40.6172 -74.1913 200° South 229 264 3,200 1,286 Climbing FlightAware ADS-B
Wed 11:15:12 PM 40.6115 -74.1955 209° Southwest 229 264 3,300 1,500 Climbing FlightAware ADS-B
Wed 11:15:18 PM 40.6070 -74.2012 224° Southwest 230 265 3,500 2,400 Climbing FlightAware ADS-B
Wed 11:15:22 PM 40.6044 -74.2056 232° Southwest 231 266 3,700 2,400 Climbing FlightAware ADS-B
Wed 11:15:28 PM 40.6018 -74.2131 245° Southwest 231 266 3,900 3,484 Climbing FlightAware ADS-B
Wed 11:15:53 PM 40.6021 -74.2475 271° West 231 266 5,500 3,805 Climbing FlightAware ADS-B
Wed 11:16:09 PM 40.6040 -74.2697 276° West 232 267 6,500 3,545 Climbing FlightAware ADS-B
Wed 11:16:15 PM 40.6041 -74.2783 271° West 236 272 6,800 3,273 Climbing FlightAware ADS-B
Wed 11:16:20 PM 40.6041 -74.2854 270° West 233 268 7,100 3,818 Climbing FlightAware ADS-B
Wed 11:16:26 PM 40.6041 -74.2941 270° West 238 274 7,500 3,600 Climbing FlightAware ADS-B
Wed 11:16:30 PM 40.6040 -74.3000 269° West 241 277 7,700 3,000 Climbing FlightAware ADS-B
Wed 11:16:38 PM 40.6036 -74.3118 267° West 246 283 8,100 3,333 Climbing FlightAware ADS-B
Wed 11:16:48 PM 40.6030 -74.3268 267° West 237 273 8,700 3,600 Climbing FlightAware ADS-B
Wed 11:16:53 PM 40.6026 -74.3344 266° West 247 284 9,000 4,000 Climbing FlightAware ADS-B
Wed 11:17:00 PM 40.6022 -74.3449 267° West 248 285 9,500 3,600 Climbing FlightAware ADS-B
Wed 11:17:03 PM 40.6017 -74.3494 262° West 250 288 9,600 3,000 Climbing FlightAware ADS-B
Wed 11:17:04 PM 40.6016 -74.3510 265° West 251 289 9,700 4,500 Climbing FlightAware ADS-B
Wed 11:17:07 PM 40.6008 -74.3555 257° West 252 290 9,900 3,429 Climbing FlightAware ADS-B
Wed 11:17:11 PM 40.5997 -74.3615 256° West 258 297 10,100 2,769 Climbing FlightAware ADS-B
Wed 11:17:20 PM 40.5960 -74.3749 250° West 264 304 10,500 2,471 Climbing FlightAware ADS-B
Wed 11:17:28 PM 40.5930 -74.3874 252° West 263 303 10,800 2,000 Climbing FlightAware ADS-B
Wed 11:17:50 PM 40.5846 -74.4236 253° West 299 344 11,500 2,700 Climbing FlightAware ADS-B
Wed 11:18:08 PM 40.5769 -74.4548 252° West 293 337 12,600 4,154 Climbing FlightAware ADS-B
Wed 11:18:29 PM 40.5693 -74.4894 254° West 280 322 14,200 2,941 Climbing FlightAware ADS-B
Wed 11:18:59 PM 40.5576 -74.5404 253° West 309 356 15,100 1,565 Climbing FlightAware ADS-B
Wed 11:19:15 PM 40.5502 -74.5699 252° West 329 379 15,400 1,021 Climbing FlightAware ADS-B
Wed 11:19:46 PM 40.5354 -74.6320 253° West 361 415 15,900 1,475 Climbing FlightAware ADS-B
Wed 11:20:16 PM 40.5194 -74.6969 252° West 381 438 16,900 2,262 Climbing FlightAware ADS-B
Wed 11:20:47 PM 40.5018 -74.7658 251° West 387 445 18,200 2,459 Climbing FlightAware ADS-B
Wed 11:21:17 PM 40.4847 -74.8334 252° West 394 453 19,400 2,361 Climbing FlightAware ADS-B
Wed 11:21:48 PM 40.4669 -74.9042 252° West 399 459 20,600 2,262 Climbing FlightAware ADS-B
Wed 11:22:18 PM 40.4492 -74.9733 251° West 404 465 21,700 2,066 Climbing FlightAware ADS-B
Wed 11:22:49 PM 40.4312 -75.0461 252° West 412 474 22,700 1,770 Climbing FlightAware ADS-B
Wed 11:23:19 PM 40.4130 -75.1182 252° West 421 484 23,500 1,800 Climbing FlightAware ADS-B
Wed 11:23:49 PM 40.3941 -75.1915 251° West 428 493 24,500 1,742 Climbing FlightAware ADS-B
Wed 11:24:21 PM 40.3744 -75.2711 252° West 436 502 25,300 1,645 Climbing FlightAware ADS-B
Wed 11:24:51 PM 40.3549 -75.3467 251° West 439 505 26,200 1,700 Climbing FlightAware ADS-B
Wed 11:25:21 PM 40.3355 -75.4224 251° West 443 510 27,000 1,900 Climbing FlightAware ADS-B
Wed 11:25:51 PM 40.3157 -75.4985 251° West 440 506 28,100 2,066 Climbing FlightAware ADS-B
Wed 11:26:22 PM 40.2956 -75.5764 251° West 436 502 29,100 1,935 Climbing FlightAware ADS-B
Wed 11:26:53 PM 40.2761 -75.6534 252° West 432 497 30,100 1,869 Climbing FlightAware ADS-B
Wed 11:27:23 PM 40.2567 -75.7273 251° West 430 495 31,000 1,672 Climbing FlightAware ADS-B
Wed 11:27:54 PM 40.2371 -75.8033 251° West 428 493 31,800 984 Climbing FlightAware ADS-B
Wed 11:28:24 PM 40.2175 -75.8771 251° West 432 497 32,000 197 Climbing FlightAware ADS-B
Wed 11:28:55 PM 40.1979 -75.9535 251° West 430 495 32,000  Level FlightAware ADS-B
Wed 11:29:25 PM 40.1782 -76.0269 251° West 428 493 32,000  Level FlightAware ADS-B
Wed 11:29:56 PM 40.1588 -76.1025 251° West 426 490 32,000  Level FlightAware ADS-B
Wed 11:30:26 PM 40.1396 -76.1756 251° West 426 490 32,000  Level FlightAware ADS-B
Wed 11:30:56 PM 40.1203 -76.2484 251° West 426 490 32,000  Level FlightAware ADS-B
Wed 11:31:26 PM 40.1006 -76.3214 251° West 426 490 32,000  Level FlightAware ADS-B
Wed 11:31:57 PM 40.0811 -76.3969 251° West 428 493 32,000  Level FlightAware ADS-B
Wed 11:32:27 PM 40.0611 -76.4702 250° West 430 495 32,000  Level FlightAware ADS-B
Wed 11:32:58 PM 40.0412 -76.5458 251° West 430 495 32,000  Level FlightAware ADS-B
Wed 11:33:28 PM 40.0212 -76.6193 250° West 432 497 32,000  Level FlightAware ADS-B
Wed 11:33:58 PM 40.0011 -76.6931 250° West 434 499 32,000  Level FlightAware ADS-B
Wed 11:34:29 PM 39.9809 -76.7693 251° West 433 498 32,000  Level FlightAware ADS-B
Wed 11:34:59 PM 39.9609 -76.8428 250° West 430 495 32,000  Level FlightAware ADS-B
Wed 11:35:21 PM 39.9482 -76.8974 253° West 430 495 32,000  Level FlightAware ADS-B
Wed 11:35:51 PM 39.9424 -76.9745 264° West 430 495 32,000  Level FlightAware ADS-B
Wed 11:36:21 PM 39.9371 -77.0518 265° West 430 495 32,000  Level FlightAware ADS-B
Wed 11:36:55 PM 39.9310 -77.1388 265° West 425 489 32,000  Level FlightAware ADS-B
Wed 11:37:10 PM 39.9273 -77.1768 263° West 426 490 32,000  Level FlightAware ADS-B
Wed 11:37:17 PM 39.9238 -77.1942 255° West 429 494 32,000  Level FlightAware ADS-B
Wed 11:37:50 PM 39.9018 -77.2752 251° West 435 501 32,000  Level FlightAware ADS-B
Wed 11:38:21 PM 39.8797 -77.3513 249° West 438 504 32,000  Level FlightAware ADS-B
Wed 11:38:52 PM 39.8580 -77.4277 250° West 437 503 32,000  Level FlightAware ADS-B
Wed 11:39:24 PM 39.8355 -77.5037 249° West 435 501 32,000  Level FlightAware ADS-B
Wed 11:39:54 PM 39.8138 -77.5799 250° West 436 502 32,000  Level FlightAware ADS-B
Wed 11:40:26 PM 39.7913 -77.6584 250° West 437 503 32,000  Level FlightAware ADS-B
Wed 11:41:04 PM 39.7645 -77.7518 250° West 438 504 32,000  Level FlightAware ADS-B
Wed 11:41:35 PM 39.7426 -77.8280 250° West 437 503 32,000  Level FlightAware ADS-B
Wed 11:42:05 PM 39.7212 -77.9016 249° West 437 503 32,000  Level FlightAware ADS-B
Wed 11:42:36 PM 39.6994 -77.9777 250° West 439 505 32,000  Level FlightAware ADS-B
Wed 11:43:06 PM 39.6773 -78.0519 249° West 441 507 32,000  Level FlightAware ADS-B
Wed 11:43:38 PM 39.6548 -78.1285 249° West 441 507 32,000  Level FlightAware ADS-B
Wed 11:44:18 PM 39.6253 -78.2302 249° West 441 507 32,000  Level FlightAware ADS-B
Wed 11:44:53 PM 39.6090 -78.2870 250° West 443 510 32,000  Level FlightAware ADS-B
Wed 11:45:07 PM 39.5893 -78.3519 249° West 444 511 32,000  Level FlightAware ADS-B
Wed 11:45:38 PM 39.5680 -78.4240 249° West 444 511 32,000  Level FlightAware ADS-B
Wed 11:46:18 PM 39.5390 -78.5230 249° West 443 510 32,000  Level FlightAware ADS-B
Wed 11:47:03 PM 39.5050 -78.6370 249° West 443 510 32,000  Level FlightAware ADS-B
Wed 11:47:43 PM 39.4760 -78.7360 249° West 443 510 32,000  Level FlightAware ADS-B
Wed 11:48:28 PM 39.4430 -78.8450 249° West 444 511 32,000  Level FlightAware ADS-B
Wed 11:49:08 PM 39.4130 -78.9440 249° West 445 512 32,000  Level FlightAware ADS-B
Wed 11:49:48 PM 39.3840 -79.0410 249° West 444 511 32,000 282 Level FlightAware ADS-B
Wed 11:50:33 PM 39.3490 -79.1580 249° West 449 517 32,400 776 Climbing FlightAware ADS-B
Wed 11:51:13 PM 39.3050 -79.2500 238° Southwest 454 522 33,100 1,125 Climbing FlightAware ADS-B
Wed 11:51:53 PM 39.2550 -79.3370 233° Southwest 452 520 33,900 635 Climbing FlightAware ADS-B
Wed 11:52:38 PM 39.2010 -79.4300 233° Southwest 449 517 34,000 71 Climbing FlightAware ADS-B
Wed 11:53:18 PM 39.1520 -79.5160 234° Southwest 448 516 34,000  Level FlightAware ADS-B
Wed 11:54:03 PM 39.0960 -79.6140 234° Southwest 446 513 34,000  Level FlightAware ADS-B
Wed 11:54:43 PM 39.0460 -79.7020 234° Southwest 446 513 34,000  Level FlightAware ADS-B
Wed 11:55:28 PM 38.9940 -79.7940 234° Southwest 446 513 34,000  Level FlightAware ADS-B
Wed 11:56:08 PM 38.9470 -79.8780 234° Southwest 446 513 34,000  Level FlightAware ADS-B
Wed 11:56:48 PM 38.9130 -79.9740 246° West 446 513 34,000  Level FlightAware ADS-B
Wed 11:57:33 PM 38.8810 -80.0920 251° West 443 510 34,000  Level FlightAware ADS-B
Wed 11:58:13 PM 38.8530 -80.1910 250° West 444 511 34,000  Level FlightAware ADS-B
Wed 11:58:58 PM 38.8210 -80.3040 250° West 444 511 34,000  Level FlightAware ADS-B
Wed 11:59:38 PM 38.7930 -80.4040 250° West 445 512 34,000  Level FlightAware ADS-B
Thu 12:00:18 AM 38.7650 -80.5030 250° West 445 512 34,000  Level FlightAware ADS-B
Thu 12:01:03 AM 38.7350 -80.6090 250° West 446 513 34,000  Level FlightAware ADS-B
Thu 12:01:43 AM 38.7060 -80.7110 250° West 447 514 34,000  Level FlightAware ADS-B
Thu 12:02:23 AM 38.6780 -80.8080 250° West 446 513 34,000  Level FlightAware ADS-B
Thu 12:03:08 AM 38.6460 -80.9220 250° West 446 513 34,000  Level FlightAware ADS-B
Thu 12:03:48 AM 38.6170 -81.0230 250° West 446 513 34,000  Level FlightAware ADS-B
Thu 12:04:28 AM 38.5890 -81.1200 250° West 447 514 34,000  Level FlightAware ADS-B
Thu 12:05:13 AM 38.5570 -81.2310 250° West 446 513 34,000  Level FlightAware ADS-B
Thu 12:05:53 AM 38.5280 -81.3300 249° West 447 514 34,000  Level FlightAware ADS-B
Thu 12:06:38 AM 38.4950 -81.4440 250° West 447 514 34,000  Level FlightAware ADS-B
Thu 12:07:18 AM 38.4660 -81.5430 250° West 447 514 34,000  Level FlightAware ADS-B
Thu 12:07:58 AM 38.4370 -81.6420 250° West 448 516 34,000  Level FlightAware ADS-B
Thu 12:08:43 AM 38.4060 -81.7480 250° West 451 519 34,000  Level FlightAware ADS-B
Thu 12:09:23 AM 38.3760 -81.8500 249° West 451 519 34,000  Level FlightAware ADS-B
Thu 12:10:03 AM 38.3470 -81.9470 249° West 448 516 34,000  Level FlightAware ADS-B
Thu 12:10:29 AM 38.3254 -82.0184 249° West 447 514 34,000  Level FlightAware ADS-B
Thu 12:11:00 AM 38.3033 -82.0928 249° West 436 502 34,000  Level FlightAware ADS-B
Thu 12:11:33 AM 38.2810 -82.1670 249° West 433 498 34,000  Level FlightAware ADS-B
Thu 12:12:13 AM 38.2540 -82.2600 250° West 432 497 34,000  Level FlightAware ADS-B
Thu 12:12:58 AM 38.2200 -82.3700 249° West 426 490 34,000  Level FlightAware ADS-B
Thu 12:13:29 AM 38.1978 -82.4446 249° West 422 486 34,000 -375 Level FlightAware ADS-B
Thu 12:14:02 AM 38.1744 -82.5209 249° West 423 487 33,600 -894 Descending FlightAware ADS-B
Thu 12:15:03 AM 38.1320 -82.6590 249° West 431 496 32,600 -930 Descending FlightAware ADS-B
Thu 12:15:13 AM 38.1240 -82.6871 250° West 424 488 32,500 -900 Descending FlightAware ADS-B
Thu 12:15:43 AM 38.1060 -82.7470 249° West 439 505 32,000 -400 Descending FlightAware ADS-B
Thu 12:16:28 AM 38.0700 -82.8650 249° West 442 509 32,000  Level FlightAware ADS-B
Thu 12:17:02 AM 38.0434 -82.9493 248° West 442 509 32,000  Level FlightAware ADS-B
Thu 12:17:33 AM 38.0200 -83.0240 248° West 442 509 32,000  Level FlightAware ADS-B
Thu 12:18:07 AM 37.9952 -83.1054 249° West 436 502 32,000  Level FlightAware ADS-B
Thu 12:18:37 AM 37.9728 -83.1763 248° West 432 497 32,000  Level FlightAware ADS-B
Thu 12:19:07 AM 37.9496 -83.2463 247° West 431 496 32,000  Level FlightAware ADS-B
Thu 12:19:58 AM 37.9091 -83.3637 246° West 431 496 32,000  Level FlightAware ADS-B
Thu 12:20:14 AM 37.8992 -83.3931 246° West 429 494 32,000 -774 Level Indianapolis Center
Thu 12:25:39 AM 37.7360 -84.1660 246° West 438 504 27,600 -1,229 Descending FlightAware ADS-B
Thu 12:26:30 AM 37.7227 -84.2985 263° West 452 520 24,300 -3,878 Descending FlightAware ADS-B
Thu 12:27:01 AM 37.7142 -84.3806 263° West 452 520 22,300 -3,000 Descending FlightAware ADS-B
Thu 12:27:38 AM 37.7050 -84.4710 263° West 432 497 20,900 -2,500 Descending FlightAware ADS-B
Thu 12:28:13 AM 37.6970 -84.5500 263° West 421 484 19,300 -1,200 Descending FlightAware ADS-B
Thu 12:28:58 AM 37.6860 -84.6490 262° West 421 484 19,300  Level FlightAware ADS-B
Thu 12:29:38 AM 37.6770 -84.7320 262° West 421 484 19,300  Level FlightAware ADS-B
Thu 12:30:18 AM 37.6680 -84.8150 262° West 421 484 19,300  Level FlightAware ADS-B
Thu 12:31:08 AM 37.6560 -84.9180 262° West 421 484 19,300  Level FlightAware ADS-B
Thu 12:31:48 AM 37.6470 -85.0010 262° West 421 484 19,300 -3,109 Level FlightAware ADS-B
Thu 12:34:48 AM 37.8540 -85.2310 319° Northwest 225 259 7,900 -3,337 Descending FlightAware ADS-B
Thu 12:35:13 AM 37.8700 -85.2520 314° West 225 259 7,900 -570 Level FlightAware ADS-B
Thu 12:38:08 AM 37.9930 -85.4220 313° West 223 257 6,000 -556 Descending FlightAware ADS-B
Thu 12:38:38 AM 38.0150 -85.4530 312° West 224 258 6,000  Level FlightAware ADS-B
Thu 12:38:48 AM 38.0220 -85.4630 312° West 224 258 6,000 -300 Level FlightAware ADS-B
Thu 12:39:18 AM 38.0430 -85.4920 313° West 220 253 5,800 -800 Descending FlightAware ADS-B
Thu 12:39:48 AM 38.0620 -85.5200 311° West 222 255 5,200 -873 Descending FlightAware ADS-B
Thu 12:40:13 AM 38.0820 -85.5470 313° West 218 251 5,000 -300 Descending FlightAware ADS-B
Thu 12:40:28 AM 38.0910 -85.5590 314° West 216 249 5,000  Level FlightAware ADS-B
Thu 12:40:58 AM 38.1150 -85.5830 322° Northwest 229 264 5,000  Level FlightAware ADS-B
Thu 12:41:23 AM 38.1420 -85.5940 342° North 231 266 5,000  Level FlightAware ADS-B
Thu 12:41:38 AM 38.1570 -85.6010 340° North 231 266 5,000  Level FlightAware ADS-B
Thu 12:42:03 AM 38.1820 -85.6120 341° North 231 266 5,000  Level FlightAware ADS-B
Thu 12:42:33 AM 38.2130 -85.6240 343° North 231 266 5,000  Level FlightAware ADS-B
Thu 12:42:48 AM 38.2270 -85.6310 339° North 231 266 5,000  Level FlightAware ADS-B
Thu 12:43:13 AM 38.2540 -85.6420 342° North 231 266 5,000  Level FlightAware ADS-B
Thu 12:43:28 AM 38.2690 -85.6480 343° North 231 266 5,000  Level FlightAware ADS-B
Thu 12:43:58 AM 38.2990 -85.6600 343° North 230 265 5,000  Level FlightAware ADS-B
Thu 12:44:08 AM 38.3090 -85.6650 339° North 230 265 5,000  Level FlightAware ADS-B
Thu 12:44:38 AM 38.3400 -85.6790 340° North 228 262 5,000 -700 Level FlightAware ADS-B
Thu 12:45:08 AM 38.3700 -85.6910 343° North 228 262 4,300 -982 Descending FlightAware ADS-B
Thu 12:45:33 AM 38.3940 -85.7000 344° North 218 251 4,100 -327 Descending FlightAware ADS-B
Thu 12:46:03 AM 38.4250 -85.7110 344° North 217 250 4,000 -133 Descending FlightAware ADS-B
Thu 12:46:18 AM 38.4370 -85.7160 342° North 218 251 4,000  Level FlightAware ADS-B
Thu 12:46:43 AM 38.4640 -85.7260 344° North 222 255 4,000  Level FlightAware ADS-B
Thu 12:46:58 AM 38.4770 -85.7300 346° North 224 258 4,000  Level FlightAware ADS-B
Thu 12:47:13 AM 38.4920 -85.7410 330° Northwest 210 242 4,000  Level FlightAware ADS-B
Thu 12:47:28 AM 38.4990 -85.7550 303° West 206 237 4,000  Level FlightAware ADS-B
Thu 12:47:53 AM 38.5110 -85.7830 299° West 203 234 4,000  Level FlightAware ADS-B
Thu 12:48:03 AM 38.5130 -85.7910 288° West 200 230 4,000  Level FlightAware ADS-B
Thu 12:48:23 AM 38.5040 -85.8130 242° Southwest 203 234 4,000  Level FlightAware ADS-B
Thu 12:48:38 AM 38.4910 -85.8200 203° Southwest 215 247 4,000  Level FlightAware ADS-B
Thu 12:49:03 AM 38.4670 -85.8240 187° South 225 259 4,000  Level FlightAware ADS-B
Thu 12:49:18 AM 38.4490 -85.8200 170° South 229 264 4,000  Level FlightAware ADS-B
Thu 12:49:43 AM 38.4220 -85.8120 167° South 231 266 4,000  Level FlightAware ADS-B
Thu 12:50:13 AM 38.3910 -85.8020 166° South 226 260 4,000 -100 Level FlightAware ADS-B
Thu 12:50:43 AM 38.3610 -85.7910 164° South 228 262 3,900 -545 Descending FlightAware ADS-B
Thu 12:51:08 AM 38.3360 -85.7820 164° South 229 264 3,500 -1,091 Descending FlightAware ADS-B
Thu 12:51:38 AM 38.3070 -85.7720 165° South 207 238 2,900 -1,100 Descending FlightAware ADS-B
Thu 12:52:08 AM 38.2810 -85.7630 165° South 178 205 2,400 -933 Descending FlightAware ADS-B
Thu 12:52:23 AM 38.2680 -85.7590 166° South 158 182 2,200 -750 Descending FlightAware ADS-B
Thu 12:52:48 AM 38.2530 -85.7540 165° South 133 153 1,900 -764 Descending FlightAware ADS-B
Thu 12:53:18 AM 38.2360 -85.7480 165° South 126 145 1,500 -667 Descending FlightAware ADS-B
Thu 12:53:33 AM 38.2270 -85.7450 165° South 127 146 1,400 -600 Descending FlightAware ADS-B
Thu 12:53:58 AM 38.2130 -85.7400 164° South 128 147 1,100 -764 Descending FlightAware ADS-B
Thu 12:54:28 AM 38.1950 -85.7340 165° South 134 154 700 -800 Descending FlightAware ADS-B
Thu 12:54:43 AM 38.1860 -85.7310 165° South 134 154 500 -800 Descending FlightAware ADS-B

Login

Don't have an account? Register now (free) for customized features, flight alerts, and more!